createdAt,value
2017-06-14T00:00:42.817Z,13.14
2017-06-14T00:01:42.866Z,13.13
2017-06-14T00:02:42.894Z,13.03
2017-06-14T00:03:42.982Z,13.09
2017-06-14T00:04:42.961Z,13.07
2017-06-14T00:05:43.188Z,13.01
2017-06-14T00:06:43.025Z,13.11
2017-06-14T00:07:43.060Z,13.03
2017-06-14T00:08:43.091Z,13.09
2017-06-14T00:09:43.332Z,13.1
2017-06-14T00:10:43.163Z,12.94
2017-06-14T00:11:43.189Z,12.95
2017-06-14T00:12:43.267Z,12.98
2017-06-14T00:13:43.237Z,12.94
2017-06-14T00:14:43.289Z,12.92
2017-06-14T00:15:43.325Z,12.96
2017-06-14T00:16:43.344Z,12.98
2017-06-14T00:17:43.396Z,12.92
2017-06-14T00:18:43.386Z,12.94
2017-06-14T00:19:43.423Z,12.86
2017-06-14T00:20:43.489Z,12.95
2017-06-14T00:21:43.531Z,12.88
2017-06-14T00:22:43.569Z,12.83
2017-06-14T00:23:43.548Z,12.78
2017-06-14T00:24:43.610Z,12.81
2017-06-14T00:25:43.668Z,12.76
2017-06-14T00:26:43.715Z,12.73
2017-06-14T00:27:43.725Z,12.81
2017-06-14T00:28:43.760Z,12.83
2017-06-14T00:29:43.877Z,12.74
2017-06-14T00:30:43.849Z,12.83
2017-06-14T00:31:43.863Z,12.86
2017-06-14T00:32:43.928Z,12.92
2017-06-14T00:33:43.898Z,12.83
2017-06-14T00:34:43.989Z,12.88
2017-06-14T00:35:44.042Z,12.89
2017-06-14T00:36:44.021Z,12.86
2017-06-14T00:37:44.052Z,12.83
2017-06-14T00:38:44.071Z,12.8
2017-06-14T00:39:44.178Z,12.74
2017-06-14T00:40:44.172Z,12.74
2017-06-14T00:41:44.187Z,12.74
2017-06-14T00:42:44.223Z,12.76
2017-06-14T00:43:44.269Z,12.71
2017-06-14T00:44:44.300Z,12.69
2017-06-14T00:45:44.315Z,12.61
2017-06-14T00:46:44.377Z,12.53
2017-06-14T00:47:44.361Z,12.61
2017-06-14T00:48:44.425Z,12.56
2017-06-14T00:49:44.458Z,12.59
2017-06-14T00:50:44.464Z,12.51
2017-06-14T00:51:44.542Z,12.58
2017-06-14T00:52:44.639Z,12.52
2017-06-14T00:53:44.584Z,12.48
2017-06-14T00:54:44.601Z,12.48
2017-06-14T00:55:44.653Z,12.51
2017-06-14T00:56:44.683Z,12.45
2017-06-14T00:57:44.742Z,12.51
2017-06-14T00:58:44.755Z,12.51
2017-06-14T00:59:44.760Z,12.51
2017-06-14T01:01:16.582Z,12.48
2017-06-14T01:01:44.911Z,12.59
2017-06-14T01:02:45.000Z,12.44
2017-06-14T01:03:44.969Z,12.48
2017-06-14T01:04:45.036Z,12.48
2017-06-14T01:05:45.048Z,12.51
2017-06-14T01:06:45.081Z,12.44
2017-06-14T01:07:45.101Z,12.47
2017-06-14T01:08:45.136Z,12.45
2017-06-14T01:09:45.162Z,12.48
2017-06-14T01:10:45.198Z,12.45
2017-06-14T01:11:45.236Z,12.51
2017-06-14T01:12:45.268Z,12.48
2017-06-14T01:13:45.298Z,12.52
2017-06-14T01:14:45.379Z,12.53
2017-06-14T01:15:45.383Z,12.53
2017-06-14T01:16:45.422Z,12.47
2017-06-14T01:17:45.442Z,12.53
2017-06-14T01:18:45.446Z,12.48
2017-06-14T01:19:45.502Z,12.45
2017-06-14T01:20:45.524Z,12.48
2017-06-14T01:21:45.578Z,12.44
2017-06-14T01:22:45.591Z,12.44
2017-06-14T01:23:45.631Z,12.43
2017-06-14T01:24:45.794Z,12.47
2017-06-14T01:25:45.685Z,12.47
2017-06-14T01:26:45.701Z,12.36
2017-06-14T01:27:45.742Z,12.26
2017-06-14T01:28:45.811Z,12.31
2017-06-14T01:29:45.834Z,12.36
2017-06-14T01:30:45.861Z,12.26
2017-06-14T01:31:45.898Z,12.07
2017-06-14T01:32:45.975Z,12.08
2017-06-14T01:33:46.056Z,12.16
2017-06-14T01:34:45.987Z,12.15
2017-06-14T01:35:46.012Z,12.15
2017-06-14T01:36:46.050Z,12.05
2017-06-14T01:37:46.082Z,12.07
2017-06-14T01:38:46.136Z,12.11
2017-06-14T01:39:46.156Z,12.11
2017-06-14T01:40:46.213Z,12.07
2017-06-14T01:41:46.211Z,12.04
2017-06-14T01:42:46.261Z,12.01
2017-06-14T01:43:46.303Z,12.01
2017-06-14T01:44:46.363Z,11.89
2017-06-14T01:45:46.344Z,11.98
2017-06-14T01:46:46.412Z,11.89
2017-06-14T01:47:46.420Z,11.85
2017-06-14T01:48:46.449Z,11.94
2017-06-14T01:49:46.489Z,11.88
2017-06-14T01:50:46.528Z,11.98
2017-06-14T01:51:46.537Z,11.91
2017-06-14T01:52:46.589Z,11.86
2017-06-14T01:53:46.624Z,11.85
2017-06-14T01:54:46.674Z,11.79
2017-06-14T01:55:46.699Z,11.82
2017-06-14T01:56:46.713Z,11.82
2017-06-14T01:57:46.718Z,11.84
2017-06-14T01:58:46.778Z,11.84
2017-06-14T01:59:46.795Z,11.84
2017-06-14T02:00:46.895Z,11.82
2017-06-14T02:01:46.881Z,11.75
2017-06-14T02:02:47.079Z,11.86
2017-06-14T02:03:46.932Z,11.86
2017-06-14T02:04:46.981Z,11.82
2017-06-14T02:05:47.067Z,11.88
2017-06-14T02:06:47.051Z,11.73
2017-06-14T02:07:47.085Z,11.84
2017-06-14T02:08:47.093Z,11.85
2017-06-14T02:09:47.154Z,11.84
2017-06-14T02:10:47.182Z,11.73
2017-06-14T02:11:47.203Z,11.76
2017-06-14T02:12:47.237Z,11.67
2017-06-14T02:13:47.293Z,11.67
2017-06-14T02:14:47.296Z,11.66
2017-06-14T02:15:47.357Z,11.73
2017-06-14T02:16:47.367Z,11.75
2017-06-14T02:17:47.437Z,11.66
2017-06-14T02:18:47.462Z,11.73
2017-06-14T02:19:47.463Z,11.63
2017-06-14T02:20:47.494Z,11.61
2017-06-14T02:21:47.548Z,11.67
2017-06-14T02:22:47.557Z,11.63
2017-06-14T02:23:47.603Z,11.76
2017-06-14T02:24:47.619Z,11.73
2017-06-14T02:25:47.642Z,11.71
2017-06-14T02:26:47.687Z,11.64
2017-06-14T02:27:47.731Z,11.67
2017-06-14T02:28:47.769Z,11.68
2017-06-14T02:29:47.840Z,11.63
2017-06-14T02:30:47.852Z,11.59
2017-06-14T02:31:47.862Z,11.59
2017-06-14T02:32:47.899Z,11.61
2017-06-14T02:33:47.898Z,11.59
2017-06-14T02:34:47.937Z,11.6
2017-06-14T02:35:47.940Z,11.45
2017-06-14T02:36:47.976Z,11.57
2017-06-14T02:37:48.002Z,11.57
2017-06-14T02:38:48.059Z,11.51
2017-06-14T02:39:48.054Z,11.48
2017-06-14T02:40:48.126Z,11.49
2017-06-14T02:41:48.156Z,11.53
2017-06-14T02:42:48.149Z,11.51
2017-06-14T02:43:48.253Z,11.51
2017-06-14T02:44:48.235Z,11.48
2017-06-14T02:45:48.238Z,11.49
2017-06-14T02:46:48.345Z,11.43
2017-06-14T02:47:48.298Z,11.38
2017-06-14T02:48:48.364Z,11.45
2017-06-14T02:49:48.394Z,11.49
2017-06-14T02:50:48.405Z,11.35
2017-06-14T02:51:48.487Z,11.42
2017-06-14T02:52:48.534Z,11.43
2017-06-14T02:53:48.533Z,11.51
2017-06-14T02:54:48.606Z,11.57
2017-06-14T02:55:48.594Z,11.57
2017-06-14T02:56:48.617Z,11.43
2017-06-14T02:57:48.649Z,11.49
2017-06-14T02:58:48.683Z,11.51
2017-06-14T02:59:48.737Z,11.49
2017-06-14T03:00:48.738Z,11.49
2017-06-14T03:01:48.791Z,11.52
2017-06-14T03:02:48.848Z,11.51
2017-06-14T03:03:55.998Z,11.51
2017-06-14T03:04:48.908Z,11.51
2017-06-14T03:05:48.900Z,11.42
2017-06-14T03:06:48.930Z,11.52
2017-06-14T03:07:49.006Z,11.51
2017-06-14T03:08:49.095Z,11.51
2017-06-14T03:09:49.073Z,11.48
2017-06-14T03:10:49.082Z,11.46
2017-06-14T03:11:49.133Z,11.51
2017-06-14T03:12:49.173Z,11.53
2017-06-14T03:13:49.194Z,11.51
2017-06-14T03:14:49.195Z,11.48
2017-06-14T03:15:49.249Z,11.48
2017-06-14T03:16:49.295Z,11.46
2017-06-14T03:17:49.272Z,11.52
2017-06-14T03:18:49.361Z,11.51
2017-06-14T03:19:49.395Z,11.51
2017-06-14T03:20:49.384Z,11.48
2017-06-14T03:21:49.435Z,11.53
2017-06-14T03:22:49.471Z,11.49
2017-06-14T03:23:49.475Z,11.48
2017-06-14T03:24:49.529Z,11.43
2017-06-14T03:25:49.595Z,11.51
2017-06-14T03:26:49.625Z,11.63
2017-06-14T03:27:49.618Z,11.67
2017-06-14T03:28:49.643Z,11.64
2017-06-14T03:29:49.699Z,11.64
2017-06-14T03:30:49.731Z,11.7
2017-06-14T03:31:49.781Z,11.73
2017-06-14T03:32:49.775Z,11.73
2017-06-14T03:33:49.818Z,11.78
2017-06-14T03:34:49.840Z,11.79
2017-06-14T03:35:49.897Z,11.79
2017-06-14T03:36:49.924Z,11.88
2017-06-14T03:37:49.974Z,11.85
2017-06-14T03:38:49.964Z,11.84
2017-06-14T03:39:50.066Z,11.88
2017-06-14T03:40:50.076Z,11.89
2017-06-14T03:41:50.070Z,11.86
2017-06-14T03:42:50.142Z,11.78
2017-06-14T03:43:50.139Z,11.84
2017-06-14T03:44:50.190Z,11.82
2017-06-14T03:45:50.216Z,11.73
2017-06-14T03:46:50.263Z,11.88
2017-06-14T03:47:50.318Z,11.91
2017-06-14T03:48:50.305Z,11.79
2017-06-14T03:49:50.323Z,11.85
2017-06-14T03:50:50.364Z,12
2017-06-14T03:51:50.406Z,11.95
2017-06-14T03:52:50.431Z,11.88
2017-06-14T03:53:50.460Z,12.03
2017-06-14T03:54:50.469Z,11.94
2017-06-14T03:55:50.514Z,12.03
2017-06-14T03:56:50.581Z,11.98
2017-06-14T03:57:50.589Z,12.04
2017-06-14T03:58:50.615Z,12.08
2017-06-14T03:59:50.698Z,12.03
2017-06-14T04:00:50.714Z,12.2
2017-06-14T04:01:50.715Z,12.31
2017-06-14T04:02:50.803Z,12.34
2017-06-14T04:03:50.825Z,12.29
2017-06-14T04:04:50.858Z,12.28
2017-06-14T04:05:50.856Z,12.4
2017-06-14T04:06:50.894Z,12.44
2017-06-14T04:07:50.928Z,12.41
2017-06-14T04:08:50.986Z,12.44
2017-06-14T04:09:50.998Z,12.51
2017-06-14T04:10:51.036Z,12.61
2017-06-14T04:11:51.056Z,12.69
2017-06-14T04:12:51.096Z,12.84
2017-06-14T04:13:51.133Z,12.96
2017-06-14T04:14:51.177Z,13.32
2017-06-14T04:15:51.190Z,13.83
2017-06-14T04:16:51.207Z,14.49
2017-06-14T04:17:51.238Z,15
2017-06-14T04:18:51.312Z,15.37
2017-06-14T04:19:51.310Z,15.73
2017-06-14T04:20:51.360Z,16.04
2017-06-14T04:21:51.382Z,16.34
2017-06-14T04:22:51.411Z,16.59
2017-06-14T04:23:51.492Z,16.88
2017-06-14T04:24:51.465Z,17.36
2017-06-14T04:25:51.519Z,17.94
2017-06-14T04:26:51.600Z,18.6
2017-06-14T04:27:51.606Z,19.25
2017-06-14T04:28:51.641Z,19.63
2017-06-14T04:29:51.676Z,19.83
2017-06-14T04:30:51.693Z,20
2017-06-14T04:31:51.718Z,20.08
2017-06-14T04:32:51.815Z,19.82
2017-06-14T04:33:51.843Z,19.45
2017-06-14T04:34:51.884Z,18.91
2017-06-14T04:35:51.900Z,18.39
2017-06-14T04:36:51.931Z,17.88
2017-06-14T04:37:51.942Z,17.35
2017-06-14T04:38:52.030Z,17.03
2017-06-14T04:39:52.023Z,16.77
2017-06-14T04:40:52.056Z,16.58
2017-06-14T04:41:52.145Z,16.4
2017-06-14T04:42:52.129Z,16.36
2017-06-14T04:43:52.198Z,16.32
2017-06-14T04:44:52.237Z,16.58
2017-06-14T04:45:52.306Z,16.91
2017-06-14T04:46:52.327Z,17.3
2017-06-14T04:47:52.335Z,17.47
2017-06-14T04:48:52.398Z,17.4
2017-06-14T04:49:52.410Z,17.46
2017-06-14T04:50:52.461Z,17.46
2017-06-14T04:51:52.483Z,17.43
2017-06-14T04:52:52.514Z,17.31
2017-06-14T04:53:52.533Z,17.2
2017-06-14T04:54:52.568Z,17.1
2017-06-14T04:55:52.649Z,17.15
2017-06-14T04:56:52.640Z,17.09
2017-06-14T04:57:52.736Z,17.09
2017-06-14T04:58:52.765Z,17.02
2017-06-14T04:59:52.763Z,16.97
2017-06-14T05:00:52.797Z,16.9
2017-06-14T05:01:52.903Z,16.91
2017-06-14T05:02:52.894Z,16.91
2017-06-14T05:03:52.952Z,16.84
2017-06-14T05:04:52.936Z,16.88
2017-06-14T05:05:53.022Z,16.9
2017-06-14T05:06:53.031Z,16.9
2017-06-14T05:07:53.070Z,16.91
2017-06-14T05:08:53.113Z,17.45
2017-06-14T05:09:53.128Z,17.87
2017-06-14T05:10:53.167Z,17.95
2017-06-14T05:11:53.224Z,18.06
2017-06-14T05:12:53.280Z,18.02
2017-06-14T05:13:53.385Z,18.2
2017-06-14T05:14:53.296Z,18.35
2017-06-14T05:15:53.470Z,18.66
2017-06-14T05:16:53.403Z,19.12
2017-06-14T05:17:53.425Z,19.56
2017-06-14T05:18:53.459Z,19.8
2017-06-14T05:19:53.540Z,19.74
2017-06-14T05:20:53.681Z,19.75
2017-06-14T05:21:53.561Z,19.42
2017-06-14T05:22:53.639Z,19.16
2017-06-14T05:23:53.658Z,19.06
2017-06-14T05:24:53.703Z,18.81
2017-06-14T05:25:53.714Z,18.66
2017-06-14T05:26:53.775Z,18.56
2017-06-14T05:27:53.836Z,18.29
2017-06-14T05:28:53.833Z,18.02
2017-06-14T05:29:53.941Z,17.95
2017-06-14T05:30:53.926Z,17.99
2017-06-14T05:31:53.967Z,18.1
2017-06-14T05:32:53.969Z,18.19
2017-06-14T05:33:54.032Z,18.59
2017-06-14T05:34:54.055Z,18.89
2017-06-14T05:35:54.150Z,19.19
2017-06-14T05:36:54.165Z,19.43
2017-06-14T05:37:54.216Z,19.52
2017-06-14T05:38:54.216Z,19.49
2017-06-14T05:39:54.268Z,19.37
2017-06-14T05:40:54.284Z,19.27
2017-06-14T05:41:54.338Z,19.13
2017-06-14T05:42:54.375Z,18.96
2017-06-14T05:43:54.416Z,18.96
2017-06-14T05:44:54.457Z,19.07
2017-06-14T05:45:54.522Z,19.17
2017-06-14T05:46:54.519Z,19.27
2017-06-14T05:47:54.582Z,19.4
2017-06-14T05:48:54.626Z,19.38
2017-06-14T05:49:54.639Z,19.43
2017-06-14T05:50:54.671Z,19.45
2017-06-14T05:51:54.721Z,19.38
2017-06-14T05:52:54.773Z,19.37
2017-06-14T05:53:54.832Z,19.32
2017-06-14T05:54:54.793Z,19.3
2017-06-14T05:55:54.867Z,19.28
2017-06-14T05:56:54.864Z,19.16
2017-06-14T05:57:54.948Z,19.2
2017-06-14T05:58:55.013Z,19.31
2017-06-14T05:59:55.039Z,19.34
2017-06-14T06:00:55.046Z,19.45
2017-06-14T06:01:55.080Z,19.61
2017-06-14T06:02:55.091Z,19.61
2017-06-14T06:03:55.176Z,19.63
2017-06-14T06:04:55.188Z,19.5
2017-06-14T06:05:55.229Z,19.6
2017-06-14T06:06:55.259Z,19.83
2017-06-14T06:07:55.284Z,20.35
2017-06-14T06:08:55.352Z,20.74
2017-06-14T06:09:55.369Z,20.91
2017-06-14T06:10:55.442Z,20.94
2017-06-14T06:11:55.469Z,20.94
2017-06-14T06:12:55.480Z,21.3
2017-06-14T06:13:55.576Z,21.9
2017-06-14T06:14:55.538Z,22.51
2017-06-14T06:15:55.589Z,22.79
2017-06-14T06:16:55.647Z,23.16
2017-06-14T06:17:55.661Z,23.66
2017-06-14T06:18:55.713Z,24.54
2017-06-14T06:19:55.843Z,25.63
2017-06-14T06:20:55.804Z,26.71
2017-06-14T06:21:55.798Z,27.72
2017-06-14T06:22:55.895Z,28.6
2017-06-14T06:23:55.950Z,29.28
2017-06-14T06:24:55.937Z,29.87
2017-06-14T06:25:56.036Z,30.63
2017-06-14T06:26:56.042Z,31.3
2017-06-14T06:27:56.055Z,31.86
2017-06-14T06:28:56.112Z,32.37
2017-06-14T06:29:56.170Z,32.89
2017-06-14T06:30:56.193Z,33.2
2017-06-14T06:31:56.237Z,33.09
2017-06-14T06:32:56.251Z,33.09
2017-06-14T06:33:56.314Z,33.24
2017-06-14T06:34:56.386Z,33.41
2017-06-14T06:35:56.408Z,33.48
2017-06-14T06:36:56.440Z,33.68
2017-06-14T06:37:56.523Z,33.9
2017-06-14T06:38:56.545Z,34.06
2017-06-14T06:39:56.575Z,34.46
2017-06-14T06:40:56.648Z,34.94
2017-06-14T06:41:56.687Z,35.31
2017-06-14T06:42:56.712Z,35.47
2017-06-14T06:43:56.750Z,35.53
2017-06-14T06:44:56.805Z,35.68
2017-06-14T06:45:56.797Z,35.8
2017-06-14T06:46:56.878Z,35.83
2017-06-14T06:47:56.911Z,35.99
2017-06-14T06:48:56.986Z,36.28
2017-06-14T06:49:56.990Z,36.58
2017-06-14T06:50:57.101Z,36.8
2017-06-14T06:51:57.131Z,37.02
2017-06-14T06:52:57.140Z,37.27
2017-06-14T06:53:57.157Z,37.44
2017-06-14T06:54:57.242Z,37.53
2017-06-14T06:55:57.236Z,37.42
2017-06-14T06:56:57.306Z,37.26
2017-06-14T06:57:57.348Z,37.14
2017-06-14T06:58:57.389Z,37.27
2017-06-14T06:59:57.448Z,37.57
2017-06-14T07:00:57.624Z,37.75
2017-06-14T07:01:57.538Z,38.06
2017-06-14T07:02:57.585Z,38.25
2017-06-14T07:03:57.671Z,38.58
2017-06-14T07:04:57.634Z,38.89
2017-06-14T07:05:57.730Z,39.2
2017-06-14T07:06:57.750Z,39.25
2017-06-14T07:07:57.838Z,39.12
2017-06-14T07:08:57.854Z,38.9
2017-06-14T07:09:57.887Z,38.66
2017-06-14T07:10:57.944Z,38.77
2017-06-14T07:11:58.016Z,38.97
2017-06-14T07:12:57.998Z,39.38
2017-06-14T07:13:58.106Z,40.03
2017-06-14T07:14:58.102Z,40.12
2017-06-14T07:15:58.200Z,40.01
2017-06-14T07:16:58.196Z,39.86
2017-06-14T07:17:58.290Z,38.81
2017-06-14T07:18:58.311Z,37.36
2017-06-14T07:19:58.433Z,36.75
2017-06-14T07:20:58.402Z,35.95
2017-06-14T07:21:58.453Z,35.43
2017-06-14T07:22:58.492Z,35.3
2017-06-14T07:23:58.557Z,34.86
2017-06-14T07:24:58.563Z,33.71
2017-06-14T07:25:58.645Z,33.47
2017-06-14T07:26:58.666Z,33.4
2017-06-14T07:27:58.737Z,33.89
2017-06-14T07:28:58.747Z,34.43
2017-06-14T07:29:58.841Z,34.27
2017-06-14T07:30:58.831Z,33.66
2017-06-14T07:31:58.917Z,33.93
2017-06-14T07:32:58.938Z,34.78
2017-06-14T07:33:58.981Z,34.79
2017-06-14T07:34:58.993Z,34.4
2017-06-14T07:35:59.081Z,33.61
2017-06-14T07:36:59.113Z,32.61
2017-06-14T07:37:59.203Z,32.83
2017-06-14T07:38:59.199Z,32.84
2017-06-14T07:39:59.251Z,33.46
2017-06-14T07:40:59.285Z,34.21
2017-06-14T07:41:59.316Z,34.58
2017-06-14T07:42:59.353Z,35.31
2017-06-14T07:43:59.477Z,36.12
2017-06-14T07:44:59.442Z,37.15
2017-06-14T07:45:59.497Z,37.91
2017-06-14T07:46:59.515Z,38
2017-06-14T07:47:59.590Z,37.87
2017-06-14T07:48:59.713Z,37.48
2017-06-14T07:49:59.669Z,37.51
2017-06-14T07:50:59.757Z,37.29
2017-06-14T07:51:59.763Z,36.18
2017-06-14T07:52:59.815Z,34.63
2017-06-14T07:53:59.916Z,32.99
2017-06-14T07:54:59.950Z,31.62
2017-06-14T07:55:59.978Z,30.44
2017-06-14T07:56:59.991Z,30.19
2017-06-14T07:58:00.052Z,31.23
2017-06-14T07:59:00.153Z,31.71
2017-06-14T08:00:00.139Z,32.17
2017-06-14T08:01:00.206Z,31.82
2017-06-14T08:02:00.218Z,31.45
2017-06-14T08:03:00.291Z,30.81
2017-06-14T08:04:00.349Z,29.98
2017-06-14T08:05:00.351Z,29.28
2017-06-14T08:06:00.415Z,28.43
2017-06-14T08:07:00.445Z,27.9
2017-06-14T08:08:00.503Z,28.02
2017-06-14T08:09:00.510Z,27.9
2017-06-14T08:10:00.559Z,27.49
2017-06-14T08:11:00.616Z,27.9
2017-06-14T08:12:00.629Z,29.28
2017-06-14T08:13:00.672Z,31.22
2017-06-14T08:14:00.755Z,32.98
2017-06-14T08:15:00.780Z,34
2017-06-14T08:16:00.800Z,35.42
2017-06-14T08:17:00.865Z,36.39
2017-06-14T08:18:00.913Z,37
2017-06-14T08:19:00.934Z,37.3
2017-06-14T08:20:01.000Z,36.93
2017-06-14T08:21:01.038Z,36.88
2017-06-14T08:22:01.081Z,37.48
2017-06-14T08:23:01.122Z,38.42
2017-06-14T08:24:01.179Z,39.27
2017-06-14T08:25:01.196Z,39.28
2017-06-14T08:26:01.287Z,38.7
2017-06-14T08:27:01.270Z,37.68
2017-06-14T08:28:01.351Z,36.55
2017-06-14T08:29:01.436Z,35.16
2017-06-14T08:30:01.398Z,33.68
2017-06-14T08:31:01.483Z,32.53
2017-06-14T08:32:01.522Z,31.45
2017-06-14T08:33:01.590Z,30.34
2017-06-14T08:34:01.608Z,29.28
2017-06-14T08:35:01.645Z,28.12
2017-06-14T08:36:01.678Z,27.11
2017-06-14T08:37:01.700Z,26.52
2017-06-14T08:38:01.756Z,26.01
2017-06-14T08:39:01.857Z,25.74
2017-06-14T08:40:01.829Z,25.54
2017-06-14T08:41:01.882Z,25.79
2017-06-14T08:42:01.962Z,25.85
2017-06-14T08:43:01.976Z,25.89
2017-06-14T08:44:02.009Z,25.78
2017-06-14T08:45:02.044Z,25.69
2017-06-14T08:46:02.138Z,26.52
2017-06-14T08:47:02.171Z,28.3
2017-06-14T08:48:02.220Z,29.65
2017-06-14T08:49:02.258Z,31.01
2017-06-14T08:50:02.313Z,31.8
2017-06-14T08:51:02.329Z,32.38
2017-06-14T08:52:02.340Z,33.31
2017-06-14T08:53:02.406Z,34.74
2017-06-14T08:54:02.460Z,35.6
2017-06-14T08:55:02.520Z,35.43
2017-06-14T08:56:02.579Z,34.56
2017-06-14T08:57:02.555Z,33.74
2017-06-14T08:58:02.632Z,32.64
2017-06-14T08:59:02.700Z,31.68
2017-06-14T09:00:02.752Z,30.85
2017-06-14T09:01:05.805Z,29.88
2017-06-14T09:02:02.888Z,29.76
2017-06-14T09:03:02.792Z,30.54
2017-06-14T09:04:02.897Z,31.18
2017-06-14T09:05:02.983Z,32.65
2017-06-14T09:06:02.987Z,34.26
2017-06-14T09:07:03.031Z,35.92
2017-06-14T09:08:03.044Z,37.41
2017-06-14T09:09:03.218Z,38.15
2017-06-14T09:10:03.095Z,38.31
2017-06-14T09:11:03.174Z,37.75
2017-06-14T09:12:03.246Z,36.75
2017-06-14T09:13:03.242Z,36.75
2017-06-14T09:14:03.323Z,36.97
2017-06-14T09:15:03.407Z,36.89
2017-06-14T09:16:03.438Z,36.09
2017-06-14T09:17:03.452Z,35.01
2017-06-14T09:18:03.556Z,33.92
2017-06-14T09:19:03.749Z,32.72
2017-06-14T09:20:03.576Z,31.56
2017-06-14T09:21:03.612Z,30.88
2017-06-14T09:22:03.644Z,30.31
2017-06-14T09:23:03.932Z,29.97
2017-06-14T09:24:03.787Z,29.6
2017-06-14T09:25:03.783Z,29.81
2017-06-14T09:26:03.824Z,29.63
2017-06-14T09:27:03.912Z,29.4
2017-06-14T09:28:03.953Z,30.11
2017-06-14T09:29:03.955Z,31.63
2017-06-14T09:30:04.003Z,32.53
2017-06-14T09:31:04.061Z,32.35
2017-06-14T09:32:04.084Z,32.83
2017-06-14T09:33:04.110Z,34.18
2017-06-14T09:34:04.211Z,35.45
2017-06-14T09:35:04.238Z,36.9
2017-06-14T09:36:04.299Z,38.12
2017-06-14T09:37:04.340Z,39.4
2017-06-14T09:38:04.407Z,40.4
2017-06-14T09:39:04.430Z,41.31
2017-06-14T09:40:04.452Z,41.65
2017-06-14T09:41:04.477Z,41.66
2017-06-14T09:42:04.536Z,41.66
2017-06-14T09:43:04.574Z,40.96
2017-06-14T09:44:04.633Z,40.91
2017-06-14T09:45:04.712Z,40.18
2017-06-14T09:46:04.732Z,38.74
2017-06-14T09:47:04.811Z,37.23
2017-06-14T09:48:04.829Z,35.74
2017-06-14T09:49:04.843Z,35.71
2017-06-14T09:50:04.943Z,36.7
2017-06-14T09:51:04.937Z,38.05
2017-06-14T09:52:04.982Z,39.33
2017-06-14T09:53:05.083Z,40.36
2017-06-14T09:54:05.060Z,41.07
2017-06-14T09:55:05.146Z,41.83
2017-06-14T09:56:05.179Z,42.44
2017-06-14T09:57:05.248Z,42.89
2017-06-14T09:58:05.345Z,43.19
2017-06-14T09:59:05.350Z,43.59
2017-06-14T10:00:05.561Z,43.92
2017-06-14T10:01:15.062Z,43.96
2017-06-14T10:02:05.665Z,44.11
2017-06-14T10:03:05.520Z,44.4
2017-06-14T10:04:05.596Z,44.61
2017-06-14T10:05:05.636Z,44.6
2017-06-14T10:06:05.707Z,43.27
2017-06-14T10:07:05.739Z,41.87
2017-06-14T10:08:05.796Z,40.4
2017-06-14T10:09:05.842Z,39.99
2017-06-14T10:10:05.869Z,40.21
2017-06-14T10:11:05.939Z,40.25
2017-06-14T10:12:05.956Z,40.79
2017-06-14T10:13:06.021Z,41.35
2017-06-14T10:14:06.082Z,41.8
2017-06-14T10:15:06.100Z,41.95
2017-06-14T10:16:06.210Z,41.78
2017-06-14T10:17:06.237Z,41.65
2017-06-14T10:18:06.275Z,41.47
2017-06-14T10:19:06.361Z,41.56
2017-06-14T10:20:06.381Z,41.83
2017-06-14T10:21:06.429Z,41.98
2017-06-14T10:22:06.488Z,42.23
2017-06-14T10:23:06.500Z,42.63
2017-06-14T10:24:06.564Z,42.92
2017-06-14T10:25:06.627Z,43.25
2017-06-14T10:26:06.667Z,43.77
2017-06-14T10:27:06.710Z,43.92
2017-06-14T10:28:06.753Z,43.13
2017-06-14T10:29:06.787Z,42.42
2017-06-14T10:30:07.053Z,41.13
2017-06-14T10:31:06.951Z,40.41
2017-06-14T10:32:06.957Z,40.27
2017-06-14T10:33:07.052Z,40.21
2017-06-14T10:34:07.094Z,40.28
2017-06-14T10:35:07.067Z,40.51
2017-06-14T10:36:07.113Z,40.59
2017-06-14T10:37:07.232Z,39.84
2017-06-14T10:38:07.243Z,38.89
2017-06-14T10:39:07.272Z,38.81
2017-06-14T10:40:07.352Z,39.16
2017-06-14T10:41:07.368Z,39.56
2017-06-14T10:42:07.414Z,40.32
2017-06-14T10:43:07.443Z,40.94
2017-06-14T10:44:07.551Z,41.49
2017-06-14T10:45:07.519Z,41.91
2017-06-14T10:46:07.595Z,42.4
2017-06-14T10:47:07.595Z,42.44
2017-06-14T10:48:07.686Z,42.59
2017-06-14T10:49:07.705Z,42.7
2017-06-14T10:50:07.796Z,43.05
2017-06-14T10:51:07.820Z,43.11
2017-06-14T10:52:07.875Z,43.08
2017-06-14T10:53:07.917Z,42.98
2017-06-14T10:54:07.951Z,42.89
2017-06-14T10:55:07.970Z,42.85
2017-06-14T10:56:08.066Z,42.94
2017-06-14T10:57:08.078Z,43.1
2017-06-14T10:58:08.095Z,43.01
2017-06-14T10:59:08.182Z,43.01
2017-06-14T11:00:08.223Z,42.98
2017-06-14T11:01:08.298Z,43.15
2017-06-14T11:02:08.425Z,43.04
2017-06-14T11:03:08.516Z,43.1
2017-06-14T11:04:08.368Z,43.07
2017-06-14T11:05:08.428Z,43
2017-06-14T11:06:08.551Z,42.92
2017-06-14T11:07:08.506Z,42.78
2017-06-14T11:08:08.569Z,42.67
2017-06-14T11:09:08.570Z,42.23
2017-06-14T11:10:08.633Z,41.99
2017-06-14T11:11:08.694Z,41.89
2017-06-14T11:12:08.719Z,41.8
2017-06-14T11:13:08.731Z,41.94
2017-06-14T11:14:08.800Z,41.56
2017-06-14T11:15:08.854Z,40.85
2017-06-14T11:16:08.860Z,39.88
2017-06-14T11:17:08.935Z,39.65
2017-06-14T11:18:09.199Z,39.94
2017-06-14T11:19:09.031Z,40.24
2017-06-14T11:20:09.084Z,40.48
2017-06-14T11:21:09.078Z,40.47
2017-06-14T11:22:09.141Z,40.3
2017-06-14T11:23:09.191Z,39.9
2017-06-14T11:24:09.190Z,39.84
2017-06-14T11:25:09.487Z,39.72
2017-06-14T11:26:09.318Z,39.83
2017-06-14T11:27:09.333Z,39.84
2017-06-14T11:28:09.435Z,39.62
2017-06-14T11:29:09.450Z,38.99
2017-06-14T11:30:09.459Z,37.71
2017-06-14T11:31:09.497Z,36.25
2017-06-14T11:32:09.522Z,34.87
2017-06-14T11:33:09.627Z,33.55
2017-06-14T11:34:09.622Z,32.38
2017-06-14T11:35:09.666Z,31.38
2017-06-14T11:36:09.731Z,30.63
2017-06-14T11:37:09.765Z,30.03
2017-06-14T11:38:09.891Z,29.52
2017-06-14T11:39:09.849Z,28.97
2017-06-14T11:40:09.852Z,28.61
2017-06-14T11:41:09.880Z,28.18
2017-06-14T11:42:09.924Z,27.86
2017-06-14T11:43:09.996Z,27.49
2017-06-14T11:44:10.041Z,27.26
2017-06-14T11:45:10.091Z,27.05
2017-06-14T11:46:10.086Z,26.75
2017-06-14T11:47:10.151Z,26.49
2017-06-14T11:48:10.201Z,26.31
2017-06-14T11:49:10.215Z,26.07
2017-06-14T11:50:10.285Z,25.99
2017-06-14T11:51:10.333Z,25.85
2017-06-14T11:52:10.357Z,25.67
2017-06-14T11:53:10.349Z,25.64
2017-06-14T11:54:10.459Z,25.52
2017-06-14T11:55:10.454Z,25.54
2017-06-14T11:56:10.514Z,25.78
2017-06-14T11:57:10.562Z,25.84
2017-06-14T11:58:10.668Z,26
2017-06-14T11:59:10.659Z,26.03
2017-06-14T12:00:10.671Z,26.2
2017-06-14T12:01:10.713Z,26.35
2017-06-14T12:02:10.824Z,26.52
2017-06-14T12:03:10.813Z,26.56
2017-06-14T12:04:10.860Z,26.5
2017-06-14T12:05:10.838Z,26.52
2017-06-14T12:06:10.925Z,26.49
2017-06-14T12:07:10.945Z,26.35
2017-06-14T12:08:11.036Z,26.34
2017-06-14T12:09:11.041Z,26.31
2017-06-14T12:10:11.083Z,26.37
2017-06-14T12:11:11.135Z,26.49
2017-06-14T12:12:11.140Z,26.37
2017-06-14T12:13:11.230Z,26.34
2017-06-14T12:14:11.282Z,26.32
2017-06-14T12:15:11.263Z,26.15
2017-06-14T12:16:11.304Z,25.99
2017-06-14T12:17:11.356Z,25.71
2017-06-14T12:18:11.383Z,25.64
2017-06-14T12:19:11.428Z,25.54
2017-06-14T12:20:11.550Z,25.63
2017-06-14T12:21:11.504Z,25.66
2017-06-14T12:22:11.570Z,25.86
2017-06-14T12:23:11.591Z,25.86
2017-06-14T12:24:11.648Z,25.88
2017-06-14T12:25:11.667Z,25.76
2017-06-14T12:26:11.701Z,25.78
2017-06-14T12:27:11.766Z,25.66
2017-06-14T12:28:11.776Z,25.67
2017-06-14T12:29:11.800Z,25.52
2017-06-14T12:30:11.889Z,25.37
2017-06-14T12:31:11.907Z,25.33
2017-06-14T12:32:11.938Z,25.05
2017-06-14T12:33:12.000Z,24.93
2017-06-14T12:34:12.038Z,24.85
2017-06-14T12:35:12.121Z,24.7
2017-06-14T12:36:12.080Z,24.67
2017-06-14T12:37:12.182Z,24.55
2017-06-14T12:38:12.177Z,24.52
2017-06-14T12:39:12.240Z,24.52
2017-06-14T12:40:12.229Z,24.54
2017-06-14T12:41:12.294Z,24.55
2017-06-14T12:42:12.323Z,24.59
2017-06-14T12:43:12.338Z,24.48
2017-06-14T12:44:12.438Z,24.4
2017-06-14T12:45:12.450Z,24.3
2017-06-14T12:46:12.495Z,24.24
2017-06-14T12:47:12.536Z,24.15
2017-06-14T12:48:12.597Z,24.09
2017-06-14T12:49:12.587Z,24.02
2017-06-14T12:50:12.670Z,23.99
2017-06-14T12:51:12.683Z,23.84
2017-06-14T12:52:12.715Z,23.92
2017-06-14T12:53:12.769Z,23.89
2017-06-14T12:54:12.795Z,23.82
2017-06-14T12:55:12.850Z,23.82
2017-06-14T12:56:12.901Z,23.87